sensor_id;sensor_type;location;lat;lon;timestamp;noise_LAeq;noise_LA_min;noise_LA_max;noise_LA01;noise_LA95
45246;Laerm;31529;51.158;7.354;2023-06-14T00:00:04;34.86;5.30;39.11;;
45246;Laerm;31529;51.158;7.354;2023-06-14T00:00:36;34.52;5.30;39.25;;
45246;Laerm;31529;51.158;7.354;2023-06-14T00:01:11;34.39;5.30;38.18;;
45246;Laerm;31529;51.158;7.354;2023-06-14T00:01:44;35.07;5.30;39.11;;
45246;Laerm;31529;51.158;7.354;2023-06-14T00:02:16;36.28;24.20;50.00;;
45246;Laerm;31529;51.158;7.354;2023-06-14T00:02:47;35.05;5.30;38.97;;
45246;Laerm;31529;51.158;7.354;2023-06-14T00:03:18;34.84;5.30;39.51;;
45246;Laerm;31529;51.158;7.354;2023-06-14T00:03:52;34.67;5.30;38.97;;
45246;Laerm;31529;51.158;7.354;2023-06-14T00:04:25;34.47;5.30;38.67;;
45246;Laerm;31529;51.158;7.354;2023-06-14T00:04:56;34.77;5.30;43.49;;
45246;Laerm;31529;51.158;7.354;2023-06-14T00:05:28;34.33;5.30;38.51;;
45246;Laerm;31529;51.158;7.354;2023-06-14T00:06:00;34.34;5.30;38.18;;
45246;Laerm;31529;51.158;7.354;2023-06-14T00:06:31;34.65;5.30;40.33;;
45246;Laerm;31529;51.158;7.354;2023-06-14T00:07:05;38.32;27.21;43.64;;
45246;Laerm;31529;51.158;7.354;2023-06-14T00:07:40;40.61;33.74;45.81;;
45246;Laerm;31529;51.158;7.354;2023-06-14T00:08:14;39.41;30.22;42.89;;
45246;Laerm;31529;51.158;7.354;2023-06-14T00:08:45;37.55;30.22;42.12;;
45246;Laerm;31529;51.158;7.354;2023-06-14T00:09:16;36.48;5.30;41.44;;
45246;Laerm;31529;51.158;7.354;2023-06-14T00:09:50;36.00;24.20;39.51;;
45246;Laerm;31529;51.158;7.354;2023-06-14T00:10:21;35.36;5.30;39.76;;
45246;Laerm;31529;51.158;7.354;2023-06-14T00:10:53;35.03;5.30;38.90;;
45246;Laerm;31529;51.158;7.354;2023-06-14T00:11:24;35.08;5.30;42.95;;
45246;Laerm;31529;51.158;7.354;2023-06-14T00:11:57;36.10;5.30;50.11;;
45246;Laerm;31529;51.158;7.354;2023-06-14T00:12:28;34.59;5.30;38.82;;
45246;Laerm;31529;51.158;7.354;2023-06-14T00:12:59;34.44;5.30;39.41;;
45246;Laerm;31529;51.158;7.354;2023-06-14T00:13:31;35.39;5.30;39.64;;
45246;Laerm;31529;51.158;7.354;2023-06-14T00:14:02;35.05;5.30;39.17;;
45246;Laerm;31529;51.158;7.354;2023-06-14T00:14:34;34.99;5.30;38.97;;
45246;Laerm;31529;51.158;7.354;2023-06-14T00:15:06;34.57;5.30;39.51;;
45246;Laerm;31529;51.158;7.354;2023-06-14T00:15:38;48.42;24.20;72.02;;
45246;Laerm;31529;51.158;7.354;2023-06-14T00:16:09;37.01;24.20;46.13;;
45246;Laerm;31529;51.158;7.354;2023-06-14T00:16:40;34.98;5.30;38.82;;
45246;Laerm;31529;51.158;7.354;2023-06-14T00:17:13;35.09;5.30;39.51;;
45246;Laerm;31529;51.158;7.354;2023-06-14T00:17:47;35.99;5.30;39.88;;
45246;Laerm;31529;51.158;7.354;2023-06-14T00:18:18;37.09;24.20;41.60;;
45246;Laerm;31529;51.158;7.354;2023-06-14T00:18:49;38.25;28.97;47.30;;
45246;Laerm;31529;51.158;7.354;2023-06-14T00:19:22;37.56;24.20;44.68;;
45246;Laerm;31529;51.158;7.354;2023-06-14T00:19:53;38.15;5.30;47.89;;
45246;Laerm;31529;51.158;7.354;2023-06-14T00:20:25;38.25;5.30;48.49;;
45246;Laerm;31529;51.158;7.354;2023-06-14T00:20:57;37.06;5.30;46.78;;
45246;Laerm;31529;51.158;7.354;2023-06-14T00:21:28;36.55;24.20;46.38;;
45246;Laerm;31529;51.158;7.354;2023-06-14T00:22:00;36.18;5.30;44.02;;
45246;Laerm;31529;51.158;7.354;2023-06-14T00:22:31;36.83;5.30;40.92;;
45246;Laerm;31529;51.158;7.354;2023-06-14T00:23:03;39.87;34.20;43.69;;
45246;Laerm;31529;51.158;7.354;2023-06-14T00:23:34;37.83;28.97;40.92;;
45246;Laerm;31529;51.158;7.354;2023-06-14T00:24:07;35.80;5.30;40.53;;
45246;Laerm;31529;51.158;7.354;2023-06-14T00:24:38;35.70;24.20;41.44;;
45246;Laerm;31529;51.158;7.354;2023-06-14T00:25:10;39.42;27.21;43.44;;
45246;Laerm;31529;51.158;7.354;2023-06-14T00:25:41;41.55;37.21;44.37;;
45246;Laerm;31529;51.158;7.354;2023-06-14T00:26:12;38.78;31.98;42.19;;
45246;Laerm;31529;51.158;7.354;2023-06-14T00:26:43;42.35;34.61;52.64;;
45246;Laerm;31529;51.158;7.354;2023-06-14T00:27:14;40.43;33.23;44.45;;
45246;Laerm;31529;51.158;7.354;2023-06-14T00:27:45;39.30;30.22;42.26;;
45246;Laerm;31529;51.158;7.354;2023-06-14T00:28:16;37.86;27.21;44.53;;
45246;Laerm;31529;51.158;7.354;2023-06-14T00:28:47;36.95;5.30;42.65;;
45246;Laerm;31529;51.158;7.354;2023-06-14T00:29:18;36.60;5.30;45.63;;
45246;Laerm;31529;51.158;7.354;2023-06-14T00:29:50;36.39;27.21;44.37;;
45246;Laerm;31529;51.158;7.354;2023-06-14T00:30:21;37.34;27.21;50.47;;
45246;Laerm;31529;51.158;7.354;2023-06-14T00:30:52;37.24;5.30;41.36;;
45246;Laerm;31529;51.158;7.354;2023-06-14T00:31:23;35.98;5.30;39.64;;
45246;Laerm;31529;51.158;7.354;2023-06-14T00:31:54;36.75;24.20;40.92;;
45246;Laerm;31529;51.158;7.354;2023-06-14T00:32:25;39.50;28.97;47.06;;
45246;Laerm;31529;51.158;7.354;2023-06-14T00:32:56;60.04;35.96;73.82;;
45246;Laerm;31529;51.158;7.354;2023-06-14T00:33:28;37.36;28.97;43.28;;
45246;Laerm;31529;51.158;7.354;2023-06-14T00:33:59;36.01;5.30;42.05;;
45246;Laerm;31529;51.158;7.354;2023-06-14T00:34:31;36.86;24.20;41.91;;
45246;Laerm;31529;51.158;7.354;2023-06-14T00:35:02;40.33;32.65;44.16;;
45246;Laerm;31529;51.158;7.354;2023-06-14T00:35:33;40.42;34.27;43.34;;
45246;Laerm;31529;51.158;7.354;2023-06-14T00:36:04;39.61;34.20;42.59;;
45246;Laerm;31529;51.158;7.354;2023-06-14T00:36:35;38.14;24.20;45.60;;
45246;Laerm;31529;51.158;7.354;2023-06-14T00:37:07;36.85;27.21;40.73;;
45246;Laerm;31529;51.158;7.354;2023-06-14T00:37:38;35.86;5.30;39.25;;
45246;Laerm;31529;51.158;7.354;2023-06-14T00:38:09;36.50;24.20;42.71;;
45246;Laerm;31529;51.158;7.354;2023-06-14T00:38:40;36.89;24.20;42.46;;
45246;Laerm;31529;51.158;7.354;2023-06-14T00:39:11;36.51;5.30;40.92;;
45246;Laerm;31529;51.158;7.354;2023-06-14T00:39:42;36.26;24.20;40.53;;
45246;Laerm;31529;51.158;7.354;2023-06-14T00:40:13;35.95;5.30;39.76;;
45246;Laerm;31529;51.158;7.354;2023-06-14T00:40:44;35.66;5.30;39.88;;
45246;Laerm;31529;51.158;7.354;2023-06-14T00:41:16;35.71;5.30;39.76;;
45246;Laerm;31529;51.158;7.354;2023-06-14T00:41:47;35.59;5.30;40.00;;
45246;Laerm;31529;51.158;7.354;2023-06-14T00:42:25;35.74;5.30;39.64;;
45246;Laerm;31529;51.158;7.354;2023-06-14T00:42:56;35.71;24.20;40.22;;
45246;Laerm;31529;51.158;7.354;2023-06-14T00:43:27;37.06;5.30;49.13;;
45246;Laerm;31529;51.158;7.354;2023-06-14T00:43:58;36.55;24.20;39.88;;
45246;Laerm;31529;51.158;7.354;2023-06-14T00:44:30;36.45;24.20;40.08;;
45246;Laerm;31529;51.158;7.354;2023-06-14T00:45:01;36.23;24.20;40.11;;
45246;Laerm;31529;51.158;7.354;2023-06-14T00:45:33;36.14;24.20;40.53;;
45246;Laerm;31529;51.158;7.354;2023-06-14T00:46:06;35.72;24.20;39.51;;
45246;Laerm;31529;51.158;7.354;2023-06-14T00:46:37;36.04;5.30;49.50;;
45246;Laerm;31529;51.158;7.354;2023-06-14T00:47:08;48.73;5.30;71.91;;
45246;Laerm;31529;51.158;7.354;2023-06-14T00:47:41;35.92;26.86;42.59;;
45246;Laerm;31529;51.158;7.354;2023-06-14T00:48:13;35.76;24.20;39.38;;
45246;Laerm;31529;51.158;7.354;2023-06-14T00:48:45;36.89;24.20;41.10;;
45246;Laerm;31529;51.158;7.354;2023-06-14T00:49:17;37.55;28.97;40.63;;
45246;Laerm;31529;51.158;7.354;2023-06-14T00:49:53;36.86;24.20;40.63;;
45246;Laerm;31529;51.158;7.354;2023-06-14T00:50:24;36.19;5.30;39.25;;
45246;Laerm;31529;51.158;7.354;2023-06-14T00:50:56;36.93;5.30;49.44;;
45246;Laerm;31529;51.158;7.354;2023-06-14T00:51:28;35.89;5.30;39.76;;
45246;Laerm;31529;51.158;7.354;2023-06-14T00:51:59;35.80;5.30;39.25;;
45246;Laerm;31529;51.158;7.354;2023-06-14T00:52:31;35.91;24.20;40.19;;
45246;Laerm;31529;51.158;7.354;2023-06-14T00:53:03;35.55;23.85;39.64;;
45246;Laerm;31529;51.158;7.354;2023-06-14T00:53:35;37.16;5.30;40.83;;
45246;Laerm;31529;51.158;7.354;2023-06-14T00:54:06;36.88;24.20;40.83;;
45246;Laerm;31529;51.158;7.354;2023-06-14T00:54:39;36.31;24.20;40.43;;
45246;Laerm;31529;51.158;7.354;2023-06-14T00:55:10;35.65;5.30;39.76;;
45246;Laerm;31529;51.158;7.354;2023-06-14T00:55:41;35.88;24.20;39.64;;
45246;Laerm;31529;51.158;7.354;2023-06-14T00:56:13;35.73;5.30;39.25;;
45246;Laerm;31529;51.158;7.354;2023-06-14T00:56:45;35.82;24.20;39.38;;
45246;Laerm;31529;51.158;7.354;2023-06-14T00:57:16;36.58;28.97;40.22;;
45246;Laerm;31529;51.158;7.354;2023-06-14T00:57:48;36.58;24.20;39.88;;
45246;Laerm;31529;51.158;7.354;2023-06-14T00:58:21;36.87;24.20;41.10;;
45246;Laerm;31529;51.158;7.354;2023-06-14T00:58:53;36.16;5.30;39.64;;
45246;Laerm;31529;51.158;7.354;2023-06-14T00:59:25;36.02;5.30;39.51;;
45246;Laerm;31529;51.158;7.354;2023-06-14T00:59:56;36.49;24.20;40.63;;
45246;Laerm;31529;51.158;7.354;2023-06-14T01:00:27;36.32;24.20;39.76;;
45246;Laerm;31529;51.158;7.354;2023-06-14T01:00:59;37.15;30.22;40.63;;
45246;Laerm;31529;51.158;7.354;2023-06-14T01:01:30;36.45;5.30;43.34;;
45246;Laerm;31529;51.158;7.354;2023-06-14T01:02:05;37.98;27.21;40.63;;
45246;Laerm;31529;51.158;7.354;2023-06-14T01:02:36;37.37;28.97;40.53;;
45246;Laerm;31529;51.158;7.354;2023-06-14T01:03:08;36.51;24.20;40.22;;
45246;Laerm;31529;51.158;7.354;2023-06-14T01:03:43;37.22;27.21;40.22;;
45246;Laerm;31529;51.158;7.354;2023-06-14T01:04:14;37.50;28.97;41.83;;
45246;Laerm;31529;51.158;7.354;2023-06-14T01:04:47;36.62;28.97;39.76;;
45246;Laerm;31529;51.158;7.354;2023-06-14T01:05:18;36.48;5.30;40.11;;
45246;Laerm;31529;51.158;7.354;2023-06-14T01:05:55;36.26;5.30;39.64;;
45246;Laerm;31529;51.158;7.354;2023-06-14T01:08:47;36.29;27.21;40.11;;
45246;Laerm;31529;51.158;7.354;2023-06-14T01:09:37;36.21;23.85;40.53;;
45246;Laerm;31529;51.158;7.354;2023-06-14T01:10:31;36.02;24.20;40.43;;
45246;Laerm;31529;51.158;7.354;2023-06-14T01:11:12;36.24;24.20;40.11;;
45246;Laerm;31529;51.158;7.354;2023-06-14T01:13:20;37.17;5.30;42.05;;
45246;Laerm;31529;51.158;7.354;2023-06-14T01:13:53;39.96;34.20;43.84;;
45246;Laerm;31529;51.158;7.354;2023-06-14T01:14:25;38.37;30.22;43.49;;
45246;Laerm;31529;51.158;7.354;2023-06-14T01:14:59;36.49;24.20;40.53;;
45246;Laerm;31529;51.158;7.354;2023-06-14T01:15:31;36.51;27.21;40.00;;
45246;Laerm;31529;51.158;7.354;2023-06-14T01:16:04;36.62;24.20;43.23;;
45246;Laerm;31529;51.158;7.354;2023-06-14T01:16:36;44.91;33.74;52.58;;
45246;Laerm;31529;51.158;7.354;2023-06-14T01:17:11;45.10;40.22;50.14;;
45246;Laerm;31529;51.158;7.354;2023-06-14T01:17:49;41.26;34.99;44.88;;
45246;Laerm;31529;51.158;7.354;2023-06-14T01:18:22;37.90;24.20;41.68;;
45246;Laerm;31529;51.158;7.354;2023-06-14T01:18:55;37.15;28.97;40.53;;
45246;Laerm;31529;51.158;7.354;2023-06-14T01:19:27;59.95;34.99;71.87;;
45246;Laerm;31529;51.158;7.354;2023-06-14T01:20:01;44.78;31.98;54.66;;
45246;Laerm;31529;51.158;7.354;2023-06-14T01:20:34;37.13;28.97;41.19;;
45246;Laerm;31529;51.158;7.354;2023-06-14T01:21:20;36.35;5.30;40.48;;
45246;Laerm;31529;51.158;7.354;2023-06-14T01:21:52;36.09;5.30;39.76;;
45246;Laerm;31529;51.158;7.354;2023-06-14T01:22:26;36.18;24.20;40.53;;
45246;Laerm;31529;51.158;7.354;2023-06-14T01:22:58;35.83;24.20;40.11;;
45246;Laerm;31529;51.158;7.354;2023-06-14T01:23:29;36.12;24.20;40.00;;
45246;Laerm;31529;51.158;7.354;2023-06-14T01:24:03;41.16;31.98;44.81;;
45246;Laerm;31529;51.158;7.354;2023-06-14T01:24:34;40.62;33.23;45.69;;
45246;Laerm;31529;51.158;7.354;2023-06-14T01:25:06;37.19;28.97;40.63;;
45246;Laerm;31529;51.158;7.354;2023-06-14T01:25:37;38.97;31.63;42.95;;
45246;Laerm;31529;51.158;7.354;2023-06-14T01:26:09;36.74;5.30;42.46;;
45246;Laerm;31529;51.158;7.354;2023-06-14T01:26:41;35.80;5.30;39.64;;
45246;Laerm;31529;51.158;7.354;2023-06-14T01:27:16;35.79;23.85;39.38;;
45246;Laerm;31529;51.158;7.354;2023-06-14T01:27:51;35.87;27.21;39.64;;
45246;Laerm;31529;51.158;7.354;2023-06-14T01:28:24;35.55;5.30;38.97;;
45246;Laerm;31529;51.158;7.354;2023-06-14T01:28:57;35.89;5.30;39.11;;
45246;Laerm;31529;51.158;7.354;2023-06-14T01:29:29;35.95;5.30;39.25;;
45246;Laerm;31529;51.158;7.354;2023-06-14T01:30:04;36.37;27.21;39.76;;
45246;Laerm;31529;51.158;7.354;2023-06-14T01:30:37;36.58;24.20;40.00;;
45246;Laerm;31529;51.158;7.354;2023-06-14T01:31:09;36.74;28.97;41.01;;
45246;Laerm;31529;51.158;7.354;2023-06-14T01:31:43;36.80;24.20;40.11;;
45246;Laerm;31529;51.158;7.354;2023-06-14T01:32:16;36.91;27.21;40.53;;
45246;Laerm;31529;51.158;7.354;2023-06-14T01:32:49;36.88;28.97;40.22;;
45246;Laerm;31529;51.158;7.354;2023-06-14T01:33:22;36.63;24.20;40.43;;
45246;Laerm;31529;51.158;7.354;2023-06-14T01:33:55;36.93;27.21;43.79;;
45246;Laerm;31529;51.158;7.354;2023-06-14T01:34:26;36.34;5.30;39.88;;
45246;Laerm;31529;51.158;7.354;2023-06-14T01:34:57;36.17;5.30;39.64;;
45246;Laerm;31529;51.158;7.354;2023-06-14T01:35:28;36.60;5.30;39.64;;
45246;Laerm;31529;51.158;7.354;2023-06-14T01:36:01;36.47;24.20;40.00;;
45246;Laerm;31529;51.158;7.354;2023-06-14T01:36:33;36.58;28.97;39.64;;
45246;Laerm;31529;51.158;7.354;2023-06-14T01:37:06;36.69;24.20;39.51;;
45246;Laerm;31529;51.158;7.354;2023-06-14T01:37:39;36.46;24.20;39.88;;
45246;Laerm;31529;51.158;7.354;2023-06-14T01:38:12;36.20;5.30;39.76;;
45246;Laerm;31529;51.158;7.354;2023-06-14T01:38:44;36.33;27.21;39.76;;
45246;Laerm;31529;51.158;7.354;2023-06-14T01:39:15;35.94;24.20;39.38;;
45246;Laerm;31529;51.158;7.354;2023-06-14T01:39:47;36.02;5.30;39.25;;
45246;Laerm;31529;51.158;7.354;2023-06-14T01:40:20;66.08;31.98;80.92;;
45246;Laerm;31529;51.158;7.354;2023-06-14T01:40:53;40.22;27.21;49.94;;
45246;Laerm;31529;51.158;7.354;2023-06-14T01:41:25;36.43;27.21;42.99;;
45246;Laerm;31529;51.158;7.354;2023-06-14T01:41:58;36.00;24.20;39.38;;
45246;Laerm;31529;51.158;7.354;2023-06-14T01:42:30;36.01;23.85;39.88;;
45246;Laerm;31529;51.158;7.354;2023-06-14T01:43:02;35.94;24.20;39.51;;
45246;Laerm;31529;51.158;7.354;2023-06-14T01:43:34;35.85;5.30;39.11;;
45246;Laerm;31529;51.158;7.354;2023-06-14T01:44:05;36.17;27.21;40.43;;
45246;Laerm;31529;51.158;7.354;2023-06-14T01:44:37;35.79;24.20;41.83;;
45246;Laerm;31529;51.158;7.354;2023-06-14T01:45:09;35.87;24.20;39.25;;
45246;Laerm;31529;51.158;7.354;2023-06-14T01:45:42;36.18;27.21;39.88;;
45246;Laerm;31529;51.158;7.354;2023-06-14T01:46:14;36.50;27.21;40.33;;
45246;Laerm;31529;51.158;7.354;2023-06-14T01:46:46;36.33;24.20;40.00;;
45246;Laerm;31529;51.158;7.354;2023-06-14T01:47:17;36.16;24.20;39.51;;
45246;Laerm;31529;51.158;7.354;2023-06-14T01:47:49;36.19;27.21;40.53;;
45246;Laerm;31529;51.158;7.354;2023-06-14T01:48:21;36.52;27.21;39.64;;
45246;Laerm;31529;51.158;7.354;2023-06-14T01:48:52;36.60;27.21;40.11;;
45246;Laerm;31529;51.158;7.354;2023-06-14T01:49:23;36.68;27.21;40.33;;
45246;Laerm;31529;51.158;7.354;2023-06-14T01:49:54;36.36;5.30;40.11;;
45246;Laerm;31529;51.158;7.354;2023-06-14T01:50:30;37.47;24.20;43.49;;
45246;Laerm;31529;51.158;7.354;2023-06-14T01:51:01;36.27;23.85;39.76;;
45246;Laerm;31529;51.158;7.354;2023-06-14T01:51:32;36.36;27.21;39.38;;
45246;Laerm;31529;51.158;7.354;2023-06-14T01:52:03;36.34;27.21;40.11;;
45246;Laerm;31529;51.158;7.354;2023-06-14T01:52:34;36.01;24.20;39.64;;
45246;Laerm;31529;51.158;7.354;2023-06-14T01:53:09;36.44;5.30;39.25;;
45246;Laerm;31529;51.158;7.354;2023-06-14T01:53:40;36.30;24.20;40.43;;
45246;Laerm;31529;51.158;7.354;2023-06-14T01:54:11;36.66;24.20;40.22;;
45246;Laerm;31529;51.158;7.354;2023-06-14T01:54:42;36.11;24.20;39.64;;
45246;Laerm;31529;51.158;7.354;2023-06-14T01:55:14;36.48;27.21;40.53;;
45246;Laerm;31529;51.158;7.354;2023-06-14T01:55:46;36.14;24.20;40.22;;
45246;Laerm;31529;51.158;7.354;2023-06-14T01:56:19;35.90;5.30;39.64;;
45246;Laerm;31529;51.158;7.354;2023-06-14T01:56:50;36.71;28.97;39.88;;
45246;Laerm;31529;51.158;7.354;2023-06-14T01:57:22;37.48;28.97;40.53;;
45246;Laerm;31529;51.158;7.354;2023-06-14T01:57:53;36.87;27.21;39.76;;
45246;Laerm;31529;51.158;7.354;2023-06-14T01:58:24;36.91;31.19;41.01;;
45246;Laerm;31529;51.158;7.354;2023-06-14T01:58:57;36.74;24.20;40.63;;
45246;Laerm;31529;51.158;7.354;2023-06-14T01:59:28;36.12;26.86;40.83;;
45246;Laerm;31529;51.158;7.354;2023-06-14T01:59:59;36.35;27.21;39.88;;
45246;Laerm;31529;51.158;7.354;2023-06-14T02:00:30;36.56;27.21;40.00;;
45246;Laerm;31529;51.158;7.354;2023-06-14T02:01:02;36.67;24.20;40.53;;
45246;Laerm;31529;51.158;7.354;2023-06-14T02:01:34;37.51;31.19;41.28;;
45246;Laerm;31529;51.158;7.354;2023-06-14T02:02:05;37.01;28.97;40.00;;
45246;Laerm;31529;51.158;7.354;2023-06-14T02:02:37;67.08;31.19;82.46;;
45246;Laerm;31529;51.158;7.354;2023-06-14T02:03:08;58.72;36.24;77.18;;
45246;Laerm;31529;51.158;7.354;2023-06-14T02:03:39;50.88;30.22;74.09;;
45246;Laerm;31529;51.158;7.354;2023-06-14T02:04:10;36.82;28.97;40.00;;
45246;Laerm;31529;51.158;7.354;2023-06-14T02:04:41;36.89;27.21;39.88;;
45246;Laerm;31529;51.158;7.354;2023-06-14T02:05:13;37.38;30.22;40.33;;
45246;Laerm;31529;51.158;7.354;2023-06-14T02:05:44;65.21;31.19;80.92;;
45246;Laerm;31529;51.158;7.354;2023-06-14T02:06:15;56.27;28.97;73.68;;
45246;Laerm;31529;51.158;7.354;2023-06-14T02:06:49;37.02;28.97;41.10;;
45246;Laerm;31529;51.158;7.354;2023-06-14T02:07:20;37.03;28.97;40.00;;
45246;Laerm;31529;51.158;7.354;2023-06-14T02:07:51;36.59;5.30;40.22;;
45246;Laerm;31529;51.158;7.354;2023-06-14T02:08:24;38.49;28.97;42.05;;
45246;Laerm;31529;51.158;7.354;2023-06-14T02:08:55;39.69;34.99;42.95;;
45246;Laerm;31529;51.158;7.354;2023-06-14T02:09:27;39.55;34.99;42.39;;
45246;Laerm;31529;51.158;7.354;2023-06-14T02:09:58;39.10;32.65;42.83;;
45246;Laerm;31529;51.158;7.354;2023-06-14T02:10:29;38.11;28.97;41.98;;
45246;Laerm;31529;51.158;7.354;2023-06-14T02:11:00;37.09;28.97;41.10;;
45246;Laerm;31529;51.158;7.354;2023-06-14T02:11:31;37.13;28.97;43.39;;
45246;Laerm;31529;51.158;7.354;2023-06-14T02:12:03;37.25;27.21;46.13;;
45246;Laerm;31529;51.158;7.354;2023-06-14T02:12:34;36.78;27.21;40.00;;
45246;Laerm;31529;51.158;7.354;2023-06-14T02:13:05;37.92;31.19;41.28;;
45246;Laerm;31529;51.158;7.354;2023-06-14T02:13:36;38.53;31.19;43.39;;
45246;Laerm;31529;51.158;7.354;2023-06-14T02:14:07;40.02;35.96;44.92;;
45246;Laerm;31529;51.158;7.354;2023-06-14T02:14:41;37.84;31.19;43.06;;
45246;Laerm;31529;51.158;7.354;2023-06-14T02:15:12;36.82;24.20;41.76;;
45246;Laerm;31529;51.158;7.354;2023-06-14T02:15:47;36.61;24.20;41.83;;
45246;Laerm;31529;51.158;7.354;2023-06-14T02:16:22;38.93;27.21;56.65;;
45246;Laerm;31529;51.158;7.354;2023-06-14T02:16:53;37.04;30.22;43.64;;
45246;Laerm;31529;51.158;7.354;2023-06-14T02:17:24;37.55;28.62;45.81;;
45246;Laerm;31529;51.158;7.354;2023-06-14T02:17:55;37.81;31.19;43.01;;
45246;Laerm;31529;51.158;7.354;2023-06-14T02:18:27;38.16;24.20;44.20;;
45246;Laerm;31529;51.158;7.354;2023-06-14T02:18:58;38.28;31.98;43.98;;
45246;Laerm;31529;51.158;7.354;2023-06-14T02:19:29;39.24;33.23;50.38;;
45246;Laerm;31529;51.158;7.354;2023-06-14T02:20:00;38.53;32.65;44.77;;
45246;Laerm;31529;51.158;7.354;2023-06-14T02:20:32;38.94;30.22;43.23;;
45246;Laerm;31529;51.158;7.354;2023-06-14T02:21:03;41.79;36.99;47.01;;
45246;Laerm;31529;51.158;7.354;2023-06-14T02:21:34;40.17;33.74;44.99;;
45246;Laerm;31529;51.158;7.354;2023-06-14T02:22:05;39.66;34.61;45.99;;
45246;Laerm;31529;51.158;7.354;2023-06-14T02:22:36;39.56;34.99;43.49;;
45246;Laerm;31529;51.158;7.354;2023-06-14T02:23:08;40.29;33.23;47.60;;
45246;Laerm;31529;51.158;7.354;2023-06-14T02:23:39;41.25;34.61;51.61;;
45246;Laerm;31529;51.158;7.354;2023-06-14T02:24:10;42.01;33.23;53.04;;
45246;Laerm;31529;51.158;7.354;2023-06-14T02:24:42;41.81;33.74;51.97;;
45246;Laerm;31529;51.158;7.354;2023-06-14T02:25:16;42.45;36.50;51.89;;
45246;Laerm;31529;51.158;7.354;2023-06-14T02:25:47;43.92;36.99;51.17;;
45246;Laerm;31529;51.158;7.354;2023-06-14T02:26:18;44.18;39.88;52.17;;
45246;Laerm;31529;51.158;7.354;2023-06-14T02:26:49;46.94;43.18;53.73;;
45246;Laerm;31529;51.158;7.354;2023-06-14T02:27:21;45.95;41.91;55.25;;
45246;Laerm;31529;51.158;7.354;2023-06-14T02:27:52;43.71;39.88;52.66;;
45246;Laerm;31529;51.158;7.354;2023-06-14T02:28:23;43.05;38.97;50.66;;
45246;Laerm;31529;51.158;7.354;2023-06-14T02:28:54;43.83;38.18;51.25;;
45246;Laerm;31529;51.158;7.354;2023-06-14T02:29:25;43.28;36.50;52.49;;
45246;Laerm;31529;51.158;7.354;2023-06-14T02:29:56;41.83;34.99;51.24;;
45246;Laerm;31529;51.158;7.354;2023-06-14T02:30:28;40.76;35.34;48.61;;
45246;Laerm;31529;51.158;7.354;2023-06-14T02:30:59;42.09;35.96;51.97;;
45246;Laerm;31529;51.158;7.354;2023-06-14T02:31:32;41.37;36.24;48.48;;
45246;Laerm;31529;51.158;7.354;2023-06-14T02:32:04;42.52;36.75;47.34;;
45246;Laerm;31529;51.158;7.354;2023-06-14T02:32:35;41.66;34.99;47.95;;
45246;Laerm;31529;51.158;7.354;2023-06-14T02:33:07;41.10;36.99;47.36;;
45246;Laerm;31529;51.158;7.354;2023-06-14T02:33:38;40.66;35.66;49.06;;
45246;Laerm;31529;51.158;7.354;2023-06-14T02:34:09;41.59;36.24;49.71;;
45246;Laerm;31529;51.158;7.354;2023-06-14T02:34:40;41.88;36.24;49.14;;
45246;Laerm;31529;51.158;7.354;2023-06-14T02:35:12;41.39;36.24;48.78;;
45246;Laerm;31529;51.158;7.354;2023-06-14T02:35:44;41.80;35.96;47.38;;
45246;Laerm;31529;51.158;7.354;2023-06-14T02:36:15;42.56;35.96;52.03;;
45246;Laerm;31529;51.158;7.354;2023-06-14T02:36:46;42.33;35.89;53.19;;
45246;Laerm;31529;51.158;7.354;2023-06-14T02:37:19;49.01;36.99;64.86;;
45246;Laerm;31529;51.158;7.354;2023-06-14T02:37:50;44.37;37.65;56.95;;
45246;Laerm;31529;51.158;7.354;2023-06-14T02:38:22;60.89;40.11;74.65;;
45246;Laerm;31529;51.158;7.354;2023-06-14T02:38:53;44.60;38.51;51.77;;
45246;Laerm;31529;51.158;7.354;2023-06-14T02:39:25;42.99;37.83;50.22;;
45246;Laerm;31529;51.158;7.354;2023-06-14T02:39:56;40.49;36.50;45.03;;
45246;Laerm;31529;51.158;7.354;2023-06-14T02:40:27;40.01;36.24;43.69;;
45246;Laerm;31529;51.158;7.354;2023-06-14T02:40:58;40.38;35.31;47.42;;
45246;Laerm;31529;51.158;7.354;2023-06-14T02:41:31;40.70;36.99;44.16;;
45246;Laerm;31529;51.158;7.354;2023-06-14T02:42:02;41.42;38.18;47.17;;
45246;Laerm;31529;51.158;7.354;2023-06-14T02:42:33;40.91;36.75;44.95;;
45246;Laerm;31529;51.158;7.354;2023-06-14T02:43:04;41.45;37.82;45.27;;
45246;Laerm;31529;51.158;7.354;2023-06-14T02:43:35;40.90;37.42;44.45;;
45246;Laerm;31529;51.158;7.354;2023-06-14T02:44:06;40.30;35.96;44.07;;
45246;Laerm;31529;51.158;7.354;2023-06-14T02:44:38;40.09;35.96;44.81;;
45246;Laerm;31529;51.158;7.354;2023-06-14T02:45:09;39.92;35.66;45.06;;
45246;Laerm;31529;51.158;7.354;2023-06-14T02:45:40;40.19;36.40;44.24;;
45246;Laerm;31529;51.158;7.354;2023-06-14T02:46:11;41.26;37.42;43.69;;
45246;Laerm;31529;51.158;7.354;2023-06-14T02:46:42;42.59;36.75;51.88;;
45246;Laerm;31529;51.158;7.354;2023-06-14T02:47:14;51.09;38.82;63.60;;
45246;Laerm;31529;51.158;7.354;2023-06-14T02:47:45;56.26;40.53;70.34;;
45246;Laerm;31529;51.158;7.354;2023-06-14T02:48:16;60.76;37.62;73.90;;
45246;Laerm;31529;51.158;7.354;2023-06-14T02:48:47;55.19;37.62;72.58;;
45246;Laerm;31529;51.158;7.354;2023-06-14T02:49:18;54.36;35.96;68.20;;
45246;Laerm;31529;51.158;7.354;2023-06-14T02:49:50;52.58;36.24;66.88;;
45246;Laerm;31529;51.158;7.354;2023-06-14T02:50:20;54.30;35.66;68.44;;
45246;Laerm;31529;51.158;7.354;2023-06-14T02:50:52;52.09;37.42;68.08;;
45246;Laerm;31529;51.158;7.354;2023-06-14T02:51:23;45.33;37.21;61.69;;
45246;Laerm;31529;51.158;7.354;2023-06-14T02:51:54;40.93;36.99;49.08;;
45246;Laerm;31529;51.158;7.354;2023-06-14T02:52:25;44.52;40.22;51.06;;
45246;Laerm;31529;51.158;7.354;2023-06-14T02:52:57;45.64;41.49;50.94;;
45246;Laerm;31529;51.158;7.354;2023-06-14T02:53:28;44.20;41.01;54.35;;
45246;Laerm;31529;51.158;7.354;2023-06-14T02:53:59;43.68;38.67;54.27;;
45246;Laerm;31529;51.158;7.354;2023-06-14T02:54:30;43.64;38.18;54.82;;
45246;Laerm;31529;51.158;7.354;2023-06-14T02:55:01;43.58;36.50;57.61;;
45246;Laerm;31529;51.158;7.354;2023-06-14T02:55:32;44.93;37.21;58.01;;
45246;Laerm;31529;51.158;7.354;2023-06-14T02:56:04;46.04;39.76;55.74;;
45246;Laerm;31529;51.158;7.354;2023-06-14T02:56:35;45.40;38.82;55.82;;
45246;Laerm;31529;51.158;7.354;2023-06-14T02:57:07;45.96;37.82;57.64;;
45246;Laerm;31529;51.158;7.354;2023-06-14T02:57:38;45.17;38.51;55.95;;
45246;Laerm;31529;51.158;7.354;2023-06-14T02:58:09;43.06;38.35;54.77;;
45246;Laerm;31529;51.158;7.354;2023-06-14T02:58:40;41.78;38.00;50.20;;
45246;Laerm;31529;51.158;7.354;2023-06-14T02:59:12;41.19;35.96;51.79;;
45246;Laerm;31529;51.158;7.354;2023-06-14T02:59:44;40.57;36.24;46.75;;
45246;Laerm;31529;51.158;7.354;2023-06-14T03:00:15;40.71;36.75;47.54;;
45246;Laerm;31529;51.158;7.354;2023-06-14T03:00:46;39.57;34.61;43.44;;
45246;Laerm;31529;51.158;7.354;2023-06-14T03:01:18;40.35;36.50;45.69;;
45246;Laerm;31529;51.158;7.354;2023-06-14T03:01:50;41.07;34.99;48.96;;
45246;Laerm;31529;51.158;7.354;2023-06-14T03:02:21;42.94;35.96;54.16;;
45246;Laerm;31529;51.158;7.354;2023-06-14T03:02:52;39.79;34.20;46.02;;
45246;Laerm;31529;51.158;7.354;2023-06-14T03:03:25;39.27;34.61;43.18;;